Time;durP1;ratioP1;P1;durP2;ratioP2;P2;SDS_P1;SDS_P2;PMS_P1;PMS_P2;Temp;Humidity;BMP_temperature;BMP_pressure;BME280_temperature;BME280_humidity;BME280_pressure;Samples;Min_cycle;Max_cycle;Signal;HPM_P1;HPM_P2
2022/05/15 00:00:38;;;;;;;9.90;4.10;;;28.20;93.90;;;;;;5107647;28;20034;-54
2022/05/15 00:03:07;;;;;;;7.28;3.15;;;28.20;94.00;;;;;;5107360;28;20052;-46
2022/05/15 00:05:33;;;;;;;9.02;3.53;;;28.20;94.10;;;;;;5107351;28;20327;-46
2022/05/15 00:08:01;;;;;;;9.18;3.22;;;28.20;94.10;;;;;;5107414;28;20031;-46
2022/05/15 00:10:28;;;;;;;8.55;2.88;;;28.20;94.20;;;;;;5107465;28;20023;-51
2022/05/15 00:12:54;;;;;;;8.70;2.75;;;28.20;94.20;;;;;;5107315;28;20312;-51
2022/05/15 00:15:21;;;;;;;8.77;2.88;;;28.20;94.20;;;;;;5107418;28;20023;-46
2022/05/15 00:17:49;;;;;;;5.88;2.70;;;28.20;94.20;;;;;;5107392;28;20024;-49
2022/05/15 00:20:16;;;;;;;9.50;3.10;;;28.20;94.20;;;;;;5107079;28;20364;-46
2022/05/15 00:22:42;;;;;;;6.47;2.70;;;28.20;94.20;;;;;;5107158;28;20043;-50
2022/05/15 00:25:09;;;;;;;8.50;2.67;;;28.20;94.20;;;;;;5107124;28;20019;-47
2022/05/15 00:27:36;;;;;;;11.25;2.80;;;28.20;94.20;;;;;;5107583;28;20020;-51
2022/05/15 00:30:03;;;;;;;5.47;2.60;;;28.20;94.20;;;;;;5107100;28;20024;-49
2022/05/15 00:32:32;;;;;;;6.45;2.90;;;28.10;94.20;;;;;;5107590;28;20308;-47
2022/05/15 00:34:59;;;;;;;6.40;3.10;;;28.20;94.30;;;;;;5107176;28;20035;-51
2022/05/15 00:37:25;;;;;;;7.20;3.00;;;28.20;94.40;;;;;;5107483;28;20300;-47
2022/05/15 00:39:52;;;;;;;9.15;2.55;;;28.20;94.50;;;;;;5106993;28;20024;-51
2022/05/15 00:42:18;;;;;;;7.05;2.58;;;28.10;94.60;;;;;;5107195;28;20251;-52
2022/05/15 00:44:45;;;;;;;6.97;2.58;;;28.10;94.50;;;;;;5106928;28;20020;-49
2022/05/15 00:47:13;;;;;;;8.25;2.72;;;28.10;94.60;;;;;;5106697;28;20020;-48
2022/05/15 00:49:39;;;;;;;10.55;3.00;;;28.10;94.60;;;;;;5106554;28;20249;-46
2022/05/15 00:52:10;;;;;;;5.78;2.63;;;28.10;94.60;;;;;;5107079;28;20073;-53
2022/05/15 00:54:59;;;;;;;8.27;3.03;;;28.10;94.60;;;;;;5106714;28;20024;-48
2022/05/15 00:57:40;;;;;;;8.15;2.75;;;28.10;94.70;;;;;;5107180;28;20016;-55
2022/05/15 01:00:12;;;;;;;6.55;2.97;;;28.10;94.70;;;;;;5091197;28;20393;-54
2022/05/15 01:02:43;;;;;;;7.07;2.95;;;28.10;94.90;;;;;;5100904;28;20044;-53
2022/05/15 01:05:13;;;;;;;7.78;3.00;;;28.00;95.10;;;;;;5105869;28;20028;-51
2022/05/15 01:07:39;;;;;;;8.82;3.03;;;27.90;95.20;;;;;;5106315;28;20051;-50
2022/05/15 01:10:08;;;;;;;7.22;2.92;;;27.80;95.20;;;;;;5103278;28;20016;-53
2022/05/15 01:12:38;;;;;;;9.10;2.45;;;27.90;95.20;;;;;;5086643;28;20231;-47
2022/05/15 01:15:05;;;;;;;8.85;2.80;;;27.90;95.20;;;;;;5085853;28;20309;-46
2022/05/15 01:17:31;;;;;;;7.80;2.42;;;27.90;95.20;;;;;;5085516;28;20016;-48
2022/05/15 01:20:08;;;;;;;7.35;2.60;;;27.90;95.10;;;;;;5085433;28;20088;-50
2022/05/15 01:22:35;;;;;;;6.10;2.65;;;27.90;95.20;;;;;;5084830;28;20201;-48
2022/05/15 01:25:03;;;;;;;7.00;2.38;;;27.90;95.20;;;;;;5084029;28;20021;-55
2022/05/15 01:27:30;;;;;;;4.85;2.20;;;27.90;95.20;;;;;;5085538;28;20023;-47
2022/05/15 01:29:57;;;;;;;6.05;2.30;;;27.90;95.20;;;;;;5085705;28;20058;-52
2022/05/15 01:32:23;;;;;;;5.88;2.42;;;27.90;95.30;;;;;;5086072;28;20020;-47
2022/05/15 01:34:50;;;;;;;7.13;2.30;;;27.90;95.30;;;;;;5085514;28;20024;-49
2022/05/15 01:37:17;;;;;;;6.45;2.50;;;27.90;95.40;;;;;;5086001;28;20070;-48
2022/05/15 01:39:43;;;;;;;10.27;2.60;;;27.90;95.20;;;;;;5085520;28;20058;-47
2022/05/15 01:42:10;;;;;;;7.10;2.42;;;27.90;95.20;;;;;;5085830;28;20032;-47
2022/05/15 01:44:37;;;;;;;5.57;2.00;;;27.90;95.10;;;;;;5085338;28;20033;-49
2022/05/15 01:47:04;;;;;;;7.88;2.40;;;27.90;95.10;;;;;;5085696;28;20016;-46
2022/05/15 01:49:31;;;;;;;8.02;1.95;;;27.90;95.10;;;;;;5085250;28;20020;-49
2022/05/15 01:51:57;;;;;;;7.78;3.08;;;27.90;95.10;;;;;;5085466;28;20032;-49
2022/05/15 01:54:24;;;;;;;10.65;2.30;;;27.90;95.00;;;;;;5085229;28;20016;-49
2022/05/15 01:56:50;;;;;;;7.80;2.38;;;27.90;95.00;;;;;;5085581;28;20020;-48
2022/05/15 01:59:17;;;;;;;9.02;2.55;;;27.90;95.10;;;;;;5084991;28;20024;-49
2022/05/15 02:01:44;;;;;;;7.20;2.78;;;27.80;95.00;;;;;;5084937;28;20044;-50
2022/05/15 02:04:10;;;;;;;11.13;2.80;;;27.90;95.10;;;;;;5085302;28;20024;-48
2022/05/15 02:06:38;;;;;;;11.32;2.45;;;27.80;95.10;;;;;;5085355;28;20048;-49
2022/05/15 02:09:06;;;;;;;6.82;2.50;;;27.80;94.90;;;;;;5084912;28;20066;-49
2022/05/15 02:11:34;;;;;;;12.40;2.92;;;27.80;94.90;;;;;;5085141;28;20031;-48
2022/05/15 02:14:01;;;;;;;8.23;2.40;;;27.80;95.00;;;;;;5084731;28;20024;-49
2022/05/15 02:16:28;;;;;;;8.45;2.70;;;27.80;94.90;;;;;;5084975;28;20066;-48
2022/05/15 02:18:54;;;;;;;10.95;3.00;;;27.90;95.20;;;;;;5084872;28;20025;-50
2022/05/15 02:21:21;;;;;;;7.93;3.00;;;27.80;94.90;;;;;;5084744;28;20048;-52
2022/05/15 02:23:47;;;;;;;13.40;2.95;;;27.80;94.90;;;;;;5084703;28;20016;-49
2022/05/15 02:26:14;;;;;;;11.90;3.03;;;27.80;94.90;;;;;;5084753;28;20025;-47
2022/05/15 02:28:41;;;;;;;11.75;2.80;;;27.80;94.80;;;;;;5084434;28;20021;-49
2022/05/15 02:31:08;;;;;;;10.45;2.92;;;27.80;94.70;;;;;;5084678;28;20022;-48
2022/05/15 02:33:35;;;;;;;11.88;3.20;;;27.80;94.80;;;;;;5084530;28;20016;-48
2022/05/15 02:36:03;;;;;;;8.10;2.92;;;27.80;94.70;;;;;;5084383;28;20025;-52
2022/05/15 02:38:29;;;;;;;8.95;3.22;;;27.80;94.70;;;;;;5084403;28;20216;-48
2022/05/15 02:40:56;;;;;;;8.15;2.55;;;27.80;94.60;;;;;;5084479;28;20095;-49
2022/05/15 02:43:22;;;;;;;11.55;2.83;;;27.80;94.60;;;;;;5084121;28;20028;-45
2022/05/15 02:45:49;;;;;;;11.52;2.88;;;27.80;94.60;;;;;;5084340;28;20021;-46
2022/05/15 02:51:03;;;;;;;10.27;2.85;;;27.80;94.60;;;;;;5084363;28;20035;-45
2022/05/15 02:53:35;;;;;;;12.48;3.38;;;27.80;94.60;;;;;;5084234;28;20044;-45
2022/05/15 02:56:06;;;;;;;12.32;3.40;;;27.80;94.80;;;;;;5084182;28;20036;-48
2022/05/15 02:58:32;;;;;;;9.05;3.08;;;27.80;94.70;;;;;;5084126;28;20116;-47
2022/05/15 03:01:00;;;;;;;9.45;3.30;;;27.80;94.70;;;;;;5084143;28;20024;-49
2022/05/15 03:03:27;;;;;;;10.77;3.42;;;27.80;94.70;;;;;;5083922;28;20029;-46
2022/05/15 03:05:54;;;;;;;9.75;2.85;;;27.80;94.70;;;;;;5084096;28;20031;-46
2022/05/15 03:08:21;;;;;;;10.05;2.95;;;27.70;94.60;;;;;;5084049;28;20320;-47
2022/05/15 03:10:47;;;;;;;10.27;3.05;;;27.80;94.80;;;;;;5083853;28;20028;-61
2022/05/15 03:13:14;;;;;;;11.57;3.03;;;27.70;94.70;;;;;;5083943;28;20028;-45
2022/05/15 03:15:40;;;;;;;8.45;3.20;;;27.80;94.90;;;;;;5083841;28;20024;-46
2022/05/15 03:18:08;;;;;;;8.10;3.03;;;27.70;95.00;;;;;;5084030;28;20088;-45
2022/05/15 03:20:34;;;;;;;6.63;2.85;;;27.70;95.10;;;;;;5083857;28;20146;-47
2022/05/15 03:23:01;;;;;;;11.40;2.88;;;27.70;95.20;;;;;;5083713;28;20032;-54
2022/05/15 03:25:30;;;;;;;8.13;2.40;;;27.70;95.20;;;;;;5083632;28;20021;-47
2022/05/15 03:27:56;;;;;;;6.15;1.83;;;27.70;95.20;;;;;;5083231;28;20055;-50
2022/05/15 03:30:23;;;;;;;7.22;2.30;;;27.70;95.30;;;;;;5083679;28;20009;-49
2022/05/15 03:32:50;;;;;;;3.55;1.73;;;27.70;95.30;;;;;;5083567;28;20032;-51
2022/05/15 03:35:17;;;;;;;6.90;2.10;;;27.60;95.20;;;;;;5083523;28;20046;-47
2022/05/15 03:37:44;;;;;;;5.88;2.22;;;27.70;95.20;;;;;;5083675;28;20024;-47
2022/05/15 03:40:11;;;;;;;7.65;1.88;;;27.60;95.20;;;;;;5083544;28;20206;-50
2022/05/15 03:42:38;;;;;;;5.55;1.90;;;27.60;95.20;;;;;;5084050;28;20330;-48
2022/05/15 03:45:05;;;;;;;3.80;1.67;;;27.60;95.10;;;;;;5083483;28;20035;-48
2022/05/15 03:47:33;;;;;;;6.60;1.80;;;27.70;95.30;;;;;;5084007;28;20024;-49
2022/05/15 03:50:07;;;;;;;6.72;1.98;;;27.60;95.00;;;;;;5083493;28;20028;-48
2022/05/15 03:52:34;;;;;;;7.53;2.25;;;27.60;95.00;;;;;;5084027;28;20074;-49
2022/05/15 03:55:01;;;;;;;6.80;2.00;;;27.60;95.20;;;;;;5083382;28;20020;-49
2022/05/15 03:57:28;;;;;;;6.80;2.25;;;27.60;95.00;;;;;;5083982;28;20044;-48
2022/05/15 03:59:54;;;;;;;8.20;2.33;;;27.60;95.00;;;;;;5083407;28;20339;-48
2022/05/15 04:02:21;;;;;;;8.25;2.20;;;27.60;94.90;;;;;;5083202;28;20071;-47
2022/05/15 04:04:48;;;;;;;7.20;2.60;;;27.60;94.90;;;;;;5083630;28;20186;-50
2022/05/15 04:07:14;;;;;;;7.05;2.40;;;27.60;94.90;;;;;;5083889;28;20024;-45
2022/05/15 04:09:41;;;;;;;6.38;2.53;;;27.50;94.80;;;;;;5083203;28;20012;-47
2022/05/15 04:12:12;;;;;;;8.07;2.50;;;27.50;94.80;;;;;;5083755;28;20017;-54
2022/05/15 04:14:39;;;;;;;7.97;2.30;;;27.50;94.80;;;;;;5083468;28;20021;-46
2022/05/15 04:17:06;;;;;;;6.95;2.50;;;27.50;94.90;;;;;;5083649;28;20016;-53
2022/05/15 04:19:35;;;;;;;7.50;2.17;;;27.50;94.90;;;;;;5083283;28;20025;-54
2022/05/15 04:22:04;;;;;;;6.05;2.35;;;27.50;95.10;;;;;;5083636;28;20032;-53
2022/05/15 04:24:35;;;;;;;7.25;2.60;;;27.50;94.90;;;;;;5082970;28;20251;-49
2022/05/15 04:27:03;;;;;;;6.25;2.42;;;27.50;94.90;;;;;;5083563;28;20047;-48
2022/05/15 04:29:30;;;;;;;5.90;2.00;;;27.40;94.90;;;;;;5083284;28;20048;-55
2022/05/15 04:31:56;;;;;;;5.50;2.03;;;27.40;94.90;;;;;;5083537;28;20020;-47
2022/05/15 04:34:25;;;;;;;5.53;2.05;;;27.40;95.00;;;;;;5082046;28;20229;-48
2022/05/15 04:36:52;;;;;;;5.30;1.98;;;27.40;94.90;;;;;;5083407;28;20020;-54
2022/05/15 04:39:19;;;;;;;7.35;2.28;;;27.40;94.90;;;;;;5084684;28;20017;-49
2022/05/15 04:41:46;;;;;;;5.53;1.90;;;27.30;94.90;;;;;;5086955;28;20083;-47
2022/05/15 04:44:12;;;;;;;6.93;2.50;;;27.30;94.90;;;;;;5086579;28;20083;-50
2022/05/15 04:46:39;;;;;;;4.70;1.70;;;27.30;94.90;;;;;;5086821;28;20301;-49
2022/05/15 04:49:07;;;;;;;8.10;2.30;;;27.30;94.80;;;;;;5086538;28;20243;-47
2022/05/15 04:51:34;;;;;;;6.72;2.30;;;27.30;94.80;;;;;;5086752;28;20021;-52
2022/05/15 04:54:01;;;;;;;5.55;2.00;;;27.30;94.80;;;;;;5086352;28;20024;-46
2022/05/15 04:56:28;;;;;;;6.80;2.35;;;27.30;94.80;;;;;;5086688;28;20031;-50
2022/05/15 04:58:56;;;;;;;3.60;1.85;;;27.30;94.80;;;;;;5086364;28;20062;-49
2022/05/15 05:01:25;;;;;;;5.10;1.77;;;27.30;94.80;;;;;;5086289;28;20043;-46
2022/05/15 05:03:54;;;;;;;7.18;1.90;;;27.30;94.80;;;;;;5086202;28;20078;-52
2022/05/15 05:06:21;;;;;;;3.95;1.85;;;27.30;94.80;;;;;;5086435;28;20034;-51
2022/05/15 05:08:50;;;;;;;4.22;2.72;;;27.30;94.80;;;;;;5086811;28;20032;-53
2022/05/15 05:11:17;;;;;;;7.00;3.83;;;27.30;94.90;;;;;;5086339;28;20104;-50
2022/05/15 05:13:44;;;;;;;5.15;2.75;;;27.30;94.90;;;;;;5086094;28;20024;-52
2022/05/15 05:16:11;;;;;;;6.95;2.50;;;27.30;94.80;;;;;;5086296;28;20069;-48
2022/05/15 05:18:38;;;;;;;5.88;2.55;;;27.30;94.90;;;;;;5086040;28;20035;-48
2022/05/15 05:21:05;;;;;;;7.93;2.50;;;27.30;94.90;;;;;;5086100;28;20315;-49
2022/05/15 05:23:32;;;;;;;5.53;2.20;;;27.30;95.00;;;;;;5085638;28;20059;-49
2022/05/15 05:25:59;;;;;;;5.10;2.08;;;27.30;95.00;;;;;;5086192;28;20296;-50
2022/05/15 05:28:26;;;;;;;5.85;2.03;;;27.30;95.10;;;;;;5085860;28;20021;-49
2022/05/15 05:30:54;;;;;;;6.35;1.83;;;27.30;95.40;;;;;;5085734;28;20181;-52
2022/05/15 05:33:22;;;;;;;6.60;1.98;;;27.30;95.30;;;;;;5086012;28;20378;-53
2022/05/15 05:35:49;;;;;;;5.30;1.77;;;27.20;95.20;;;;;;5085735;28;20094;-46
2022/05/15 05:38:17;;;;;;;6.68;2.13;;;27.20;95.20;;;;;;5085565;28;20032;-48
2022/05/15 05:40:44;;;;;;;4.45;2.00;;;27.20;95.30;;;;;;5085606;28;20043;-46
2022/05/15 05:43:10;;;;;;;6.30;2.17;;;27.20;95.20;;;;;;5085468;28;20074;-47
2022/05/15 05:45:37;;;;;;;5.55;2.10;;;27.20;95.20;;;;;;5085517;28;20012;-51
2022/05/15 05:48:04;;;;;;;6.63;1.90;;;27.20;95.20;;;;;;5085399;28;20032;-50
2022/05/15 05:50:32;;;;;;;8.50;1.88;;;27.20;95.20;;;;;;5084968;28;20046;-53
2022/05/15 05:52:58;;;;;;;6.95;1.80;;;27.20;95.20;;;;;;5085294;28;20020;-47
2022/05/15 05:55:26;;;;;;;3.58;1.60;;;27.20;95.20;;;;;;5085268;28;20016;-49
2022/05/15 05:57:54;;;;;;;7.15;2.15;;;27.20;95.10;;;;;;5085276;28;20032;-45
2022/05/15 06:00:23;;;;;;;4.28;1.90;;;27.20;95.20;;;;;;5085026;28;20066;-52
2022/05/15 06:02:50;;;;;;;6.88;1.90;;;27.20;95.20;;;;;;5084989;28;20040;-52
2022/05/15 06:05:18;;;;;;;7.45;2.10;;;27.20;95.10;;;;;;5085034;28;20029;-48
2022/05/15 06:07:45;;;;;;;6.68;2.22;;;27.20;95.10;;;;;;5085004;28;20048;-46
2022/05/15 06:10:13;;;;;;;6.28;2.13;;;27.20;95.10;;;;;;5084926;28;20205;-47
2022/05/15 06:12:40;;;;;;;10.02;2.13;;;27.20;95.10;;;;;;5084936;28;20047;-49
2022/05/15 06:15:09;;;;;;;7.82;2.22;;;27.20;95.00;;;;;;5093058;28;20077;-49
2022/05/15 06:17:35;;;;;;;6.95;2.00;;;27.20;94.90;;;;;;5088093;28;20024;-47
2022/05/15 06:20:07;;;;;;;8.15;2.28;;;27.20;94.90;;;;;;5090564;28;20321;-51
2022/05/15 06:22:34;;;;;;;7.50;2.25;;;27.20;94.90;;;;;;5094301;28;20304;-47
2022/05/15 06:25:01;;;;;;;8.68;2.40;;;27.20;94.80;;;;;;5094274;28;20052;-51
2022/05/15 06:27:27;;;;;;;8.90;2.17;;;27.20;94.80;;;;;;5095513;28;20027;-51
2022/05/15 06:29:57;;;;;;;7.22;2.28;;;27.10;94.70;;;;;;5085835;28;20321;-49
2022/05/15 06:32:26;;;;;;;9.55;2.67;;;27.10;94.70;;;;;;5085130;28;20063;-51
2022/05/15 06:34:52;;;;;;;10.82;2.33;;;27.20;94.70;;;;;;5084754;28;20020;-46
2022/05/15 06:37:19;;;;;;;8.45;2.47;;;27.10;94.60;;;;;;5094753;28;20031;-45
2022/05/15 06:39:45;;;;;;;7.63;2.40;;;27.20;94.60;;;;;;5093499;28;20024;-54
2022/05/15 06:42:12;;;;;;;6.40;2.45;;;27.10;94.60;;;;;;5084758;28;20024;-48
2022/05/15 06:44:38;;;;;;;10.05;2.65;;;27.20;94.60;;;;;;5088948;28;20074;-46
2022/05/15 06:47:06;;;;;;;9.15;2.63;;;27.10;94.60;;;;;;5103316;28;20186;-45
2022/05/15 06:49:32;;;;;;;8.65;2.55;;;27.10;94.60;;;;;;5104627;28;20050;-45
2022/05/15 06:51:59;;;;;;;6.18;2.30;;;27.20;94.70;;;;;;5097042;28;20016;-49
2022/05/15 06:54:26;;;;;;;8.07;2.20;;;27.10;94.60;;;;;;5089529;28;20020;-46
2022/05/15 06:59:37;;;;;;;7.00;2.95;;;27.10;94.60;;;;;;5094165;28;20035;-45
2022/05/15 07:02:04;;;;;;;9.15;2.20;;;27.10;94.60;;;;;;5085865;28;20044;-49
2022/05/15 07:04:31;;;;;;;10.15;2.85;;;27.10;94.60;;;;;;5083952;28;20033;-49
2022/05/15 07:06:57;;;;;;;8.10;2.50;;;27.10;94.60;;;;;;5094176;28;20086;-50
2022/05/15 07:09:26;;;;;;;8.70;2.80;;;27.10;94.60;;;;;;5092123;28;20344;-47
2022/05/15 07:11:53;;;;;;;9.52;2.65;;;27.10;94.60;;;;;;5090996;28;20028;-48
2022/05/15 07:14:20;;;;;;;5.50;2.10;;;27.00;94.60;;;;;;5083949;28;20020;-47
2022/05/15 07:16:46;;;;;;;9.57;2.83;;;27.00;94.60;;;;;;5083334;28;20240;-47
2022/05/15 07:19:13;;;;;;;10.57;2.60;;;27.00;94.60;;;;;;5095105;28;20212;-49
2022/05/15 07:21:40;;;;;;;11.23;2.40;;;27.00;94.70;;;;;;5102188;28;20031;-44
2022/05/15 07:24:07;;;;;;;7.72;2.67;;;27.10;94.70;;;;;;5084029;28;20299;-47
2022/05/15 07:26:34;;;;;;;9.38;2.50;;;27.00;94.70;;;;;;5091920;28;20050;-47
2022/05/15 07:29:01;;;;;;;12.05;2.55;;;27.00;94.70;;;;;;5094675;28;20113;-50
2022/05/15 07:31:27;;;;;;;7.78;2.40;;;27.10;94.80;;;;;;5103999;28;20029;-47
2022/05/15 07:33:54;;;;;;;7.43;2.13;;;27.00;94.80;;;;;;5102404;28;20028;-53
2022/05/15 07:36:20;;;;;;;8.32;2.30;;;27.00;94.70;;;;;;5104219;28;20091;-50
2022/05/15 07:38:47;;;;;;;10.25;2.40;;;27.00;94.70;;;;;;5104098;28;20028;-50
2022/05/15 07:41:14;;;;;;;9.85;2.90;;;27.00;94.70;;;;;;5099433;28;20025;-48
2022/05/15 07:43:41;;;;;;;6.95;2.30;;;27.00;94.60;;;;;;5082892;28;20088;-48
2022/05/15 07:46:08;;;;;;;7.55;2.63;;;27.00;94.60;;;;;;5082112;28;20087;-52
2022/05/15 07:48:35;;;;;;;7.43;2.45;;;27.00;94.70;;;;;;5081747;28;20186;-47
2022/05/15 07:51:02;;;;;;;7.43;2.58;;;27.00;94.60;;;;;;5083471;28;20025;-52
2022/05/15 07:53:28;;;;;;;7.13;2.33;;;27.00;94.60;;;;;;5093633;28;20091;-55
2022/05/15 07:55:59;;;;;;;8.65;2.67;;;27.00;94.60;;;;;;5084852;28;20186;-54
2022/05/15 07:58:26;;;;;;;9.55;2.80;;;27.00;94.60;;;;;;5083704;28;20231;-46
2022/05/15 08:00:55;;;;;;;9.23;2.45;;;26.90;94.50;;;;;;5083425;28;20304;-48
2022/05/15 08:03:22;;;;;;;5.75;2.10;;;26.90;94.40;;;;;;5083352;28;20059;-50
2022/05/15 08:08:33;;;;;;;8.23;2.45;;;27.00;94.30;;;;;;5083407;28;20056;-48
2022/05/15 08:11:01;;;;;;;8.25;2.42;;;26.90;94.20;;;;;;5083520;28;20032;-51
2022/05/15 08:13:31;;;;;;;9.52;2.47;;;26.90;94.20;;;;;;5092556;28;20313;-48
2022/05/15 08:15:58;;;;;;;11.18;2.58;;;26.90;94.10;;;;;;5096739;28;20095;-56
2022/05/15 08:24:01;;;;;;;9.43;2.35;;;26.90;94.20;;;;;;5107104;28;20027;-54
2022/05/15 08:26:28;;;;;;;10.10;2.20;;;26.90;94.10;;;;;;5107494;28;20011;-48
2022/05/15 08:28:56;;;;;;;11.13;2.70;;;27.00;94.10;;;;;;5106828;28;20019;-50
2022/05/15 08:31:24;;;;;;;7.90;2.42;;;27.00;94.10;;;;;;5105723;28;20202;-50
2022/05/15 08:33:52;;;;;;;8.73;2.47;;;27.00;94.00;;;;;;5105308;28;20065;-49
2022/05/15 08:36:18;;;;;;;8.57;2.72;;;27.00;94.00;;;;;;5105598;28;20032;-51
2022/05/15 08:38:45;;;;;;;6.68;2.17;;;27.00;94.00;;;;;;5105410;28;20028;-49
2022/05/15 08:41:30;;;;;;;6.72;2.20;;;27.00;94.00;;;;;;5105393;28;20100;-53
2022/05/15 08:44:29;;;;;;;9.27;2.30;;;27.00;93.90;;;;;;5105316;28;20028;-47
2022/05/15 08:47:05;;;;;;;6.55;2.25;;;27.00;93.90;;;;;;5107266;28;20024;-57
2022/05/15 08:49:39;;;;;;;9.18;2.47;;;27.00;93.90;;;;;;5106711;28;20024;-49
2022/05/15 08:52:11;;;;;;;7.50;2.05;;;27.00;93.90;;;;;;5107173;28;20050;-51
2022/05/15 08:54:54;;;;;;;9.45;2.05;;;26.90;93.90;;;;;;5106809;28;20028;-53
2022/05/15 08:57:45;;;;;;;9.77;2.40;;;27.00;93.90;;;;;;5107253;28;20039;-52
2022/05/15 09:00:15;;;;;;;7.97;2.47;;;26.90;94.00;;;;;;5106573;28;20031;-50
2022/05/15 09:02:43;;;;;;;10.63;2.55;;;27.00;94.00;;;;;;5106435;28;20123;-50
2022/05/15 09:05:13;;;;;;;9.38;2.33;;;26.90;94.00;;;;;;5106598;28;20052;-49
2022/05/15 09:07:52;;;;;;;6.15;2.05;;;26.90;93.90;;;;;;5106433;28;20312;-50
2022/05/15 09:10:33;;;;;;;12.02;2.53;;;26.90;94.00;;;;;;5106333;28;20012;-48
2022/05/15 09:13:08;;;;;;;12.68;2.60;;;27.00;94.00;;;;;;5106486;28;20035;-51
2022/05/15 09:15:41;;;;;;;9.45;2.13;;;27.00;94.00;;;;;;5106383;28;20024;-54
2022/05/15 09:18:14;;;;;;;6.18;1.95;;;26.90;93.90;;;;;;5106195;28;20024;-57
2022/05/15 09:20:52;;;;;;;8.63;2.08;;;26.90;94.00;;;;;;5106309;28;20035;-50
2022/05/15 09:23:36;;;;;;;7.80;2.10;;;26.90;93.90;;;;;;5105986;28;20038;-47
2022/05/15 09:26:06;;;;;;;10.30;2.50;;;26.90;93.90;;;;;;5105314;28;20020;-51
2022/05/15 09:28:43;;;;;;;6.78;2.28;;;26.90;93.90;;;;;;5106240;28;20315;-50
2022/05/15 09:31:42;;;;;;;8.65;2.30;;;26.90;93.70;;;;;;5106230;28;20208;-51
2022/05/15 09:34:23;;;;;;;8.65;1.92;;;26.90;93.60;;;;;;5106028;28;20312;-53
2022/05/15 09:36:52;;;;;;;10.82;2.15;;;26.90;93.50;;;;;;5106388;28;20024;-53
2022/05/15 09:39:48;;;;;;;8.90;2.00;;;26.90;93.50;;;;;;5106007;28;20043;-61
2022/05/15 09:45:14;;;;;;;11.63;2.80;;;26.90;93.40;;;;;;5105865;28;20102;-50
2022/05/15 09:47:44;;;;;;;7.50;1.77;;;26.90;93.40;;;;;;5105722;28;20024;-58
2022/05/15 09:50:52;;;;;;;6.30;1.83;;;26.90;93.40;;;;;;5105764;28;20016;-51
2022/05/15 09:53:37;;;;;;;6.85;1.75;;;26.90;93.40;;;;;;5105733;28;20366;-55
2022/05/15 09:56:30;;;;;;;8.10;2.17;;;26.90;93.50;;;;;;5105643;28;20023;-52
2022/05/15 09:59:01;;;;;;;6.38;1.63;;;26.90;93.40;;;;;;5105550;28;20024;-50
2022/05/15 10:01:31;;;;;;;10.40;2.00;;;26.90;93.50;;;;;;5105372;28;20036;-54
2022/05/15 10:03:59;;;;;;;7.25;2.00;;;26.80;93.40;;;;;;5105334;28;20043;-50
2022/05/15 10:06:30;;;;;;;8.93;1.95;;;26.80;93.40;;;;;;5105484;28;20023;-52
2022/05/15 10:09:11;;;;;;;8.95;1.95;;;26.90;93.50;;;;;;5105402;28;20200;-53
2022/05/15 10:11:46;;;;;;;5.40;2.08;;;26.90;93.60;;;;;;5105503;28;20065;-48
2022/05/15 10:14:34;;;;;;;8.63;2.13;;;26.80;93.50;;;;;;5105225;28;20024;-49
2022/05/15 10:17:03;;;;;;;6.93;1.88;;;26.90;93.60;;;;;;5105494;28;20044;-53
2022/05/15 10:19:46;;;;;;;12.05;2.47;;;26.90;93.60;;;;;;5105409;28;20028;-49
2022/05/15 10:22:39;;;;;;;11.93;2.30;;;26.80;93.50;;;;;;5105383;28;20028;-53
2022/05/15 10:25:38;;;;;;;10.77;2.13;;;26.80;93.50;;;;;;5105057;28;20028;-49
2022/05/15 10:28:24;;;;;;;11.05;2.33;;;26.80;93.50;;;;;;5072550;28;20040;-52
2022/05/15 10:30:59;;;;;;;13.10;2.20;;;26.80;93.50;;;;;;5104942;28;20027;-49
2022/05/15 10:33:26;;;;;;;6.38;2.17;;;26.80;93.50;;;;;;5105027;28;20026;-49
2022/05/15 10:36:20;;;;;;;7.93;2.72;;;26.80;93.50;;;;;;5104772;28;20315;-53
2022/05/15 10:39:18;;;;;;;6.57;2.35;;;26.80;93.50;;;;;;5104859;28;20020;-50
2022/05/15 10:42:13;;;;;;;8.75;2.38;;;26.80;93.60;;;;;;5105012;28;20023;-56
2022/05/15 10:44:43;;;;;;;8.60;2.20;;;26.70;93.60;;;;;;5104893;28;20292;-54
2022/05/15 10:47:17;;;;;;;11.00;3.05;;;26.80;93.70;;;;;;5105108;28;20083;-55
2022/05/15 10:49:58;;;;;;;8.55;1.95;;;26.80;93.70;;;;;;5104506;28;20049;-53
2022/05/15 10:52:31;;;;;;;8.02;2.00;;;26.80;93.70;;;;;;5105066;28;20020;-52
2022/05/15 10:57:59;;;;;;;8.35;2.10;;;26.80;93.80;;;;;;5104504;28;20069;-51
2022/05/15 11:00:54;;;;;;;10.85;2.47;;;26.80;93.80;;;;;;5104455;28;20012;-50
2022/05/15 11:03:36;;;;;;;7.72;2.30;;;26.80;93.80;;;;;;5104119;28;20232;-48
2022/05/15 11:06:42;;;;;;;10.27;2.40;;;26.80;93.70;;;;;;5104414;28;20051;-51
2022/05/15 11:09:32;;;;;;;8.32;2.10;;;26.80;93.60;;;;;;5104381;28;20229;-49
2022/05/15 11:12:24;;;;;;;7.15;2.72;;;26.70;93.60;;;;;;5104734;28;20028;-50
2022/05/15 11:15:25;;;;;;;10.73;2.17;;;26.70;93.50;;;;;;5104114;28;20016;-51
2022/05/15 11:18:44;;;;;;;8.77;2.47;;;26.80;93.60;;;;;;5063137;28;20239;-52
2022/05/15 11:21:36;;;;;;;9.85;2.30;;;26.80;93.50;;;;;;5018489;28;20032;-46
2022/05/15 11:24:41;;;;;;;8.90;2.75;;;26.80;93.50;;;;;;5066477;28;20033;-47
2022/05/15 11:27:41;;;;;;;7.13;2.40;;;26.80;93.50;;;;;;5022504;28;20029;-51
2022/05/15 11:30:23;;;;;;;10.07;2.38;;;26.80;93.60;;;;;;5104166;28;20024;-47
2022/05/15 11:32:52;;;;;;;9.93;2.60;;;26.80;93.60;;;;;;5103909;28;20020;-47
2022/05/15 11:35:19;;;;;;;9.98;2.30;;;26.80;93.60;;;;;;5104127;28;20016;-50
2022/05/15 11:37:56;;;;;;;10.73;2.63;;;26.80;93.60;;;;;;5103979;28;20024;-49
2022/05/15 11:40:46;;;;;;;12.07;2.72;;;26.80;93.70;;;;;;5104507;28;20020;-51
2022/05/15 11:43:33;;;;;;;9.82;2.67;;;26.80;93.70;;;;;;5103719;28;20077;-56
2022/05/15 11:46:01;;;;;;;7.88;2.28;;;26.80;93.70;;;;;;5104013;28;20031;-50
2022/05/15 11:48:43;;;;;;;11.23;2.47;;;26.80;93.70;;;;;;5105900;28;20027;-50
2022/05/15 11:51:13;;;;;;;7.65;2.47;;;26.80;93.80;;;;;;5108396;28;20020;-50
2022/05/15 11:54:00;;;;;;;8.73;2.20;;;26.90;93.80;;;;;;5108108;28;20026;-52
2022/05/15 11:56:39;;;;;;;10.18;2.20;;;26.80;93.80;;;;;;5107880;28;20031;-49
2022/05/15 11:59:14;;;;;;;7.57;2.47;;;26.90;93.90;;;;;;5107649;28;20078;-50
2022/05/15 12:01:43;;;;;;;8.50;2.38;;;26.90;93.90;;;;;;5107850;28;20056;-55
2022/05/15 12:04:34;;;;;;;12.65;2.47;;;26.80;93.90;;;;;;5107687;28;20035;-49
2022/05/15 12:07:01;;;;;;;9.20;2.45;;;26.90;94.00;;;;;;5108019;28;20083;-52
2022/05/15 12:09:51;;;;;;;8.25;2.47;;;26.90;94.10;;;;;;5107732;28;20079;-56
2022/05/15 12:12:32;;;;;;;9.57;3.47;;;26.90;94.10;;;;;;5108088;28;20088;-54
2022/05/15 12:15:23;;;;;;;10.55;3.00;;;26.90;94.10;;;;;;5107481;28;20331;-50
2022/05/15 12:17:50;;;;;;;10.65;2.78;;;26.90;94.10;;;;;;5107591;28;20054;-54
2022/05/15 12:20:28;;;;;;;6.93;2.97;;;26.90;94.20;;;;;;5107297;28;20075;-48
2022/05/15 12:23:04;;;;;;;6.47;2.65;;;26.90;94.20;;;;;;5107322;28;20220;-48
2022/05/15 12:25:44;;;;;;;5.60;2.58;;;26.90;94.20;;;;;;5107278;28;20102;-53
2022/05/15 12:31:18;;;;;;;;;;;26.90;94.20;;;;;;5107888;28;20338;-55
2022/05/15 12:33:45;;;;;;;6.50;2.72;;;26.90;94.30;;;;;;5107074;28;20101;-52
2022/05/15 12:36:33;;;;;;;10.85;2.97;;;26.90;94.40;;;;;;5107143;28;20028;-50
2022/05/15 12:39:01;;;;;;;8.48;2.92;;;27.00;94.40;;;;;;5106919;28;20024;-51
2022/05/15 12:41:42;;;;;;;8.48;2.85;;;27.00;94.50;;;;;;5106853;28;20058;-52
2022/05/15 12:44:11;;;;;;;8.80;2.95;;;27.00;94.50;;;;;;5106864;28;20371;-51
2022/05/15 12:46:56;;;;;;;11.70;3.53;;;27.00;94.50;;;;;;5107175;28;20232;-54
2022/05/15 12:49:37;;;;;;;8.30;3.15;;;27.00;94.50;;;;;;5106877;28;20320;-53
2022/05/15 12:52:15;;;;;;;7.78;2.97;;;27.00;94.50;;;;;;5107259;28;20028;-58
2022/05/15 12:54:45;;;;;;;12.00;3.50;;;27.10;94.40;;;;;;5106871;28;20316;-56
2022/05/15 12:57:16;;;;;;;11.63;3.13;;;27.10;94.30;;;;;;5107158;28;20055;-49
2022/05/15 12:59:48;;;;;;;11.05;3.55;;;27.10;94.30;;;;;;5105484;28;20039;-54
2022/05/15 13:02:35;;;;;;;6.93;3.15;;;27.10;94.30;;;;;;5106504;28;20111;-50
2022/05/15 13:05:06;;;;;;;11.15;3.10;;;27.10;94.40;;;;;;5106593;28;20194;-50
2022/05/15 13:07:41;;;;;;;10.48;2.83;;;27.10;94.40;;;;;;5106990;28;20045;-56
2022/05/15 13:10:14;;;;;;;10.30;3.17;;;27.20;94.40;;;;;;5106677;28;20065;-52
2022/05/15 13:12:54;;;;;;;9.13;2.90;;;27.20;94.40;;;;;;5106364;28;20040;-49
2022/05/15 13:15:27;;;;;;;8.68;3.28;;;27.20;94.50;;;;;;5106432;28;20023;-53
2022/05/15 13:17:55;;;;;;;8.77;3.33;;;27.20;94.50;;;;;;5106300;28;20039;-50
2022/05/15 13:20:25;;;;;;;8.10;3.00;;;27.20;94.50;;;;;;5106565;28;20061;-55
2022/05/15 13:22:54;;;;;;;12.70;3.50;;;27.20;94.50;;;;;;5106262;28;20316;-48
2022/05/15 13:25:37;;;;;;;6.47;3.20;;;27.30;94.50;;;;;;5105842;28;20208;-48
2022/05/15 13:28:06;;;;;;;10.82;3.72;;;27.30;94.50;;;;;;5106138;28;20012;-52
2022/05/15 13:30:35;;;;;;;10.38;3.72;;;27.30;94.70;;;;;;5106031;28;20039;-52